This is the latest recevied weather packets stored in our database for station/object K8FJG-13. If no packets are shown the sender has not sent any weather packets the latest 1 day(s).
| Time | Temp. | Humidity | Pressure | Rain* | Wind** | Luminosity | Snow |
|---|---|---|---|---|---|---|---|
| 1777996090 | 20° C | 59% | 962.6 hPa | - | 1.34 m/s, 281° | - | - |
| 1777995487 | 20° C | 60% | 962.3 hPa | - | 1.34 m/s, 257° | - | - |
| 1777994884 | 19.44° C | 61% | 962.2 hPa | - | 1.34 m/s, 234° | - | - |
| 1777994281 | 18.89° C | 62% | 962.3 hPa | - | 1.34 m/s, 186° | - | - |
| 1777993678 | 18.33° C | 65% | 962.4 hPa | - | 0.89 m/s, 316° | - | - |
| 1777993074 | 17.78° C | 65% | 962.6 hPa | - | 1.34 m/s, 283° | - | - |
| 1777992471 | 18.33° C | 66% | 962.6 hPa | - | 1.34 m/s, 270° | - | - |
| 1777991868 | 18.33° C | 65% | 962.3 hPa | - | 2.24 m/s, 314° | - | - |
| 1777991265 | 18.33° C | 65% | 961.9 hPa | - | 1.34 m/s, 258° | - | - |
| 1777990661 | 18.33° C | 65% | 961.7 hPa | - | 1.34 m/s, 230° | - | - |
| 1777990058 | 18.33° C | 67% | 961.8 hPa | - | 1.34 m/s, 229° | - | - |
| 1777989455 | 17.78° C | 67% | 961.9 hPa | - | 1.34 m/s, 208° | - | - |
| 1777988852 | 17.22° C | 70% | 961.9 hPa | - | 0.89 m/s, 201° | - | - |
| 1777988249 | 16.67° C | 72% | 961.9 hPa | - | 0.89 m/s, 186° | - | - |
| 1777987646 | 16.11° C | 72% | 961.6 hPa | - | 1.79 m/s, 200° | - | - |
| 1777987043 | 16.11° C | 72% | 961.9 hPa | - | 0.89 m/s, 235° | - | - |
| 1777986439 | 16.11° C | 72% | 961.8 hPa | - | 1.34 m/s, 245° | - | - |
| 1777985835 | 16.11° C | 72% | 961.9 hPa | - | 0.89 m/s, 260° | - | - |
| 1777985232 | 16.11° C | 71% | 961.8 hPa | - | 0.89 m/s, 229° | - | - |
| 1777984629 | 16.11° C | 71% | 961.6 hPa | - | 0.89 m/s, 229° | - | - |
| 1777984026 | 16.11° C | 70% | 961.4 hPa | - | 0.89 m/s, 192° | - | - |
| 1777983422 | 16.11° C | 70% | 961.1 hPa | - | 1.34 m/s, 140° | - | - |
| 1777982819 | 16.67° C | 69% | 961 hPa | - | 1.34 m/s, 204° | - | - |
| 1777982216 | 16.67° C | 69% | 961.2 hPa | - | 1.34 m/s, 180° | - | - |
| 1777981613 | 17.22° C | 66% | 961.1 hPa | - | 1.34 m/s, 235° | - | - |
* Rain since midnight (hover to see other rain measurements)
** Current wind speed in m/s (hover to see current wind gust speed)